Terminal Aerodrome Forecast
Issued by NWS

Home | Current Version | Previous Version | Text Only | Print | Product List | Glossary On
Versions: 1 2 3 4 5 6 7 8 9 10 11 12 13 14 15 16 17 18 19 20 21 22 23 24 25
685
FTUS44 KMOB 312346
TAFBFM
TAF
KBFM 312346Z 0100/0124 05011KT P6SM SCT030
     FM010300 06008KT P6SM SKC
     FM011500 05010KT P6SM SCT025 SCT250=

USA.gov is the U.S. government's official web portal to all federal, state and local government web resources and services.